createdAt,value
2019-05-12T00:00:20.322Z,8.60
2019-05-12T00:02:49.055Z,8.60
2019-05-12T00:05:18.585Z,8.60
2019-05-12T00:07:48.699Z,8.60
2019-05-12T00:10:17.959Z,8.50
2019-05-12T00:12:48.232Z,8.50
2019-05-12T00:15:19.323Z,8.50
2019-05-12T00:17:48.123Z,8.50
2019-05-12T00:20:18.203Z,8.50
2019-05-12T00:22:48.811Z,8.50
2019-05-12T00:25:18.198Z,8.40
2019-05-12T00:27:48.589Z,8.40
2019-05-12T00:30:38.907Z,8.40
2019-05-12T00:33:09.281Z,8.30
2019-05-12T00:35:38.164Z,8.30
2019-05-12T00:38:09.155Z,8.20
2019-05-12T00:40:39.163Z,8.20
2019-05-12T00:43:08.726Z,8.20
2019-05-12T00:45:38.718Z,8.20
2019-05-12T00:48:09.211Z,8.20
2019-05-12T00:50:38.330Z,8.20
2019-05-12T00:53:09.038Z,8.20
2019-05-12T00:55:38.011Z,8.30
2019-05-12T00:58:08.161Z,8.10
2019-05-12T01:00:40.450Z,8.00
2019-05-12T01:03:08.662Z,8.00
2019-05-12T01:05:38.446Z,8.10
2019-05-12T01:08:08.958Z,8.00
2019-05-12T01:10:38.985Z,8.00
2019-05-12T01:13:08.840Z,7.90
2019-05-12T01:15:38.079Z,7.90
2019-05-12T01:18:09.508Z,7.80
2019-05-12T01:20:38.932Z,7.70
2019-05-12T01:23:08.729Z,7.70
2019-05-12T01:25:39.692Z,7.70
2019-05-12T01:28:08.239Z,7.70
2019-05-12T01:30:38.945Z,7.60
2019-05-12T01:33:08.500Z,7.60
2019-05-12T01:35:38.685Z,7.50
2019-05-12T01:38:08.122Z,7.50
2019-05-12T01:40:39.396Z,7.30
2019-05-12T01:43:08.637Z,7.30
2019-05-12T01:45:38.102Z,7.40
2019-05-12T01:48:08.901Z,7.40
2019-05-12T01:50:38.675Z,7.30
2019-05-12T01:53:08.446Z,7.30
2019-05-12T01:55:38.651Z,7.30
2019-05-12T01:58:08.778Z,7.30
2019-05-12T02:00:38.906Z,7.30
2019-05-12T02:03:09.210Z,7.20
2019-05-12T02:05:39.884Z,7.20
2019-05-12T02:08:10.188Z,7.10
2019-05-12T02:10:39.105Z,7.10
2019-05-12T02:13:07.978Z,7.10
2019-05-12T02:15:38.274Z,7.00
2019-05-12T02:18:09.016Z,6.90
2019-05-12T02:20:38.118Z,6.90
2019-05-12T02:23:08.852Z,6.90
2019-05-12T02:25:38.193Z,6.80
2019-05-12T02:28:09.245Z,6.90
2019-05-12T02:30:40.739Z,6.80
2019-05-12T02:33:07.350Z,6.90
2019-05-12T02:35:35.944Z,6.90
2019-05-12T02:38:05.128Z,6.80
2019-05-12T02:40:34.851Z,6.80
2019-05-12T02:43:05.435Z,6.70
2019-05-12T02:45:35.678Z,6.70
2019-05-12T02:48:05.340Z,6.70
2019-05-12T02:50:36.989Z,6.60
2019-05-12T02:53:06.011Z,6.60
2019-05-12T02:55:35.576Z,6.60
2019-05-12T02:58:05.288Z,6.50
2019-05-12T03:00:35.974Z,6.50
2019-05-12T03:03:07.351Z,6.40
2019-05-12T03:05:37.023Z,6.30
2019-05-12T03:08:05.593Z,6.30
2019-05-12T03:10:36.052Z,6.40
2019-05-12T03:13:05.080Z,6.40
2019-05-12T03:15:36.483Z,6.40
2019-05-12T03:18:06.103Z,6.30
2019-05-12T03:20:35.111Z,6.30
2019-05-12T03:23:05.983Z,6.30
2019-05-12T03:25:36.310Z,6.20
2019-05-12T03:28:08.455Z,6.30
2019-05-12T03:30:38.543Z,6.20
2019-05-12T03:33:09.381Z,6.20
2019-05-12T03:35:42.699Z,6.20
2019-05-12T03:38:07.007Z,6.20
2019-05-12T03:40:38.288Z,6.20
2019-05-12T03:43:05.993Z,6.20
2019-05-12T03:45:35.994Z,6.30
2019-05-12T03:48:05.585Z,6.30
2019-05-12T03:50:35.550Z,6.30
2019-05-12T03:53:09.796Z,6.30
2019-05-12T03:55:40.994Z,6.30
2019-05-12T03:58:05.871Z,6.30
2019-05-12T04:00:35.748Z,6.20
2019-05-12T04:03:05.323Z,6.10
2019-05-12T04:05:35.432Z,6.10
2019-05-12T04:08:05.771Z,6.30
2019-05-12T04:10:36.124Z,6.20
2019-05-12T04:13:05.309Z,6.20
2019-05-12T04:15:34.946Z,6.30
2019-05-12T04:18:05.366Z,6.30
2019-05-12T04:20:35.947Z,6.50
2019-05-12T04:23:06.268Z,6.50
2019-05-12T04:25:51.637Z,6.50
2019-05-12T04:28:05.810Z,6.50
2019-05-12T04:30:35.438Z,6.50
2019-05-12T04:33:05.631Z,6.60
2019-05-12T04:35:35.206Z,6.70
2019-05-12T04:38:04.782Z,6.80
2019-05-12T04:40:35.942Z,7.00
2019-05-12T04:43:06.155Z,7.00
2019-05-12T04:45:35.286Z,7.20
2019-05-12T04:48:05.502Z,7.20
2019-05-12T04:50:35.685Z,7.40
2019-05-12T04:53:06.310Z,7.60
2019-05-12T04:55:35.933Z,7.60
2019-05-12T04:58:05.522Z,7.80
2019-05-12T05:00:35.392Z,7.90
2019-05-12T05:03:05.676Z,8.00
2019-05-12T05:05:35.663Z,8.00
2019-05-12T05:08:04.884Z,8.00
2019-05-12T05:10:34.476Z,8.30
2019-05-12T05:13:05.188Z,8.30
2019-05-12T05:15:35.171Z,8.30
2019-05-12T05:18:06.504Z,8.40
2019-05-12T05:20:34.658Z,8.60
2019-05-12T05:23:03.762Z,8.60
2019-05-12T05:25:34.321Z,8.50
2019-05-12T05:28:04.218Z,8.70
2019-05-12T05:30:33.899Z,8.80
2019-05-12T05:33:04.728Z,8.90
2019-05-12T05:35:39.018Z,8.90
2019-05-12T05:38:04.740Z,8.80
2019-05-12T05:40:35.757Z,8.90
2019-05-12T05:43:12.252Z,8.90
2019-05-12T05:45:35.206Z,8.80
2019-05-12T05:48:09.536Z,8.70
2019-05-12T05:50:34.717Z,8.70
2019-05-12T05:53:04.004Z,8.80
2019-05-12T05:55:34.335Z,9.00
2019-05-12T05:58:08.434Z,9.00
2019-05-12T06:00:34.654Z,9.00
2019-05-12T06:03:05.313Z,9.00
2019-05-12T06:05:38.198Z,8.90
2019-05-12T06:08:04.551Z,8.80
2019-05-12T06:10:39.714Z,8.80
2019-05-12T06:13:04.823Z,8.90
2019-05-12T06:15:35.740Z,8.80
2019-05-12T06:18:03.972Z,8.90
2019-05-12T06:20:37.457Z,9.00
2019-05-12T06:23:04.283Z,9.30
2019-05-12T06:25:46.293Z,9.50
2019-05-12T06:28:07.996Z,9.60
2019-05-12T06:30:43.418Z,9.50
2019-05-12T06:33:05.136Z,9.50
2019-05-12T06:35:37.431Z,9.60
2019-05-12T06:38:04.995Z,9.70
2019-05-12T06:40:40.222Z,9.90
2019-05-12T06:43:04.543Z,9.90
2019-05-12T06:45:41.915Z,10.00
2019-05-12T06:48:04.282Z,10.20
2019-05-12T06:50:38.645Z,10.10
2019-05-12T06:53:05.184Z,10.30
2019-05-12T06:55:39.047Z,10.40
2019-05-12T06:58:05.076Z,10.80
2019-05-12T07:00:35.228Z,11.00
2019-05-12T07:03:04.781Z,11.10
2019-05-12T07:05:38.224Z,11.30
2019-05-12T07:08:04.587Z,11.20
2019-05-12T07:10:39.584Z,11.30
2019-05-12T07:13:05.497Z,11.20
2019-05-12T07:15:35.729Z,11.10
2019-05-12T07:18:06.210Z,11.20
2019-05-12T07:20:38.631Z,11.00
2019-05-12T07:23:04.718Z,11.30
2019-05-12T07:25:36.366Z,11.30
2019-05-12T07:28:07.513Z,10.70
2019-05-12T07:30:35.085Z,10.80
2019-05-12T07:33:04.822Z,10.80
2019-05-12T07:35:34.536Z,10.60
2019-05-12T07:38:04.639Z,10.30
2019-05-12T07:40:37.110Z,10.40
2019-05-12T07:43:04.315Z,10.30
2019-05-12T07:45:34.089Z,10.70
2019-05-12T07:48:07.731Z,10.70
2019-05-12T07:50:34.508Z,10.80
2019-05-12T07:53:04.115Z,10.80
2019-05-12T07:55:34.031Z,10.50
2019-05-12T07:58:10.241Z,10.90
2019-05-12T08:00:34.090Z,11.30
2019-05-12T08:03:06.345Z,11.30
2019-05-12T08:05:33.759Z,11.50
2019-05-12T08:08:08.650Z,11.50
2019-05-12T08:10:34.272Z,11.40
2019-05-12T08:13:04.446Z,11.50
2019-05-12T08:15:33.922Z,11.90
2019-05-12T08:18:07.519Z,12.40
2019-05-12T08:20:34.280Z,12.70
2019-05-12T08:23:07.870Z,12.40
2019-05-12T08:25:35.095Z,12.30
2019-05-12T08:28:15.200Z,11.90
2019-05-12T08:30:40.283Z,12.70
2019-05-12T08:33:09.511Z,13.20
2019-05-12T08:35:38.666Z,13.10
2019-05-12T08:38:07.341Z,13.30
2019-05-12T08:40:39.779Z,13.80
2019-05-12T08:43:10.149Z,14.10
2019-05-12T08:45:37.568Z,14.50
2019-05-12T08:48:10.410Z,14.50
2019-05-12T08:50:36.897Z,13.70
2019-05-12T08:53:05.361Z,13.00
2019-05-12T08:55:35.903Z,12.30
2019-05-12T08:58:04.641Z,12.40
2019-05-12T09:00:39.532Z,12.30
2019-05-12T09:03:06.293Z,12.10
2019-05-12T09:05:38.544Z,12.70
2019-05-12T09:08:05.866Z,13.00
2019-05-12T09:10:34.641Z,13.10
2019-05-12T09:13:04.091Z,13.60
2019-05-12T09:15:34.611Z,13.50
2019-05-12T09:18:04.744Z,13.40
2019-05-12T09:20:39.995Z,13.20
2019-05-12T09:23:04.996Z,14.50
2019-05-12T09:25:34.353Z,15.90
2019-05-12T09:28:04.405Z,17.30
2019-05-12T09:30:33.753Z,18.20
2019-05-12T09:33:04.047Z,17.50
2019-05-12T09:35:35.003Z,17.70
2019-05-12T09:38:05.353Z,17.80
2019-05-12T09:40:35.613Z,17.50
2019-05-12T09:43:08.650Z,17.20
2019-05-12T09:45:40.123Z,17.30
2019-05-12T09:48:09.148Z,15.40
2019-05-12T09:50:36.170Z,14.10
2019-05-12T09:53:07.046Z,13.30
2019-05-12T09:55:34.715Z,14.10
2019-05-12T09:58:03.996Z,15.10
2019-05-12T10:00:35.833Z,15.00
2019-05-12T10:03:04.884Z,14.80
2019-05-12T10:05:39.327Z,14.80
2019-05-12T10:08:04.764Z,15.60
2019-05-12T10:10:38.112Z,16.40
2019-05-12T10:13:04.714Z,16.50
2019-05-12T10:15:33.787Z,15.40
2019-05-12T10:18:06.465Z,14.40
2019-05-12T10:20:37.337Z,14.90
2019-05-12T10:23:04.387Z,14.90
2019-05-12T10:25:33.883Z,15.10
2019-05-12T10:28:11.165Z,15.00
2019-05-12T10:30:34.263Z,15.50
2019-05-12T10:33:03.715Z,15.40
2019-05-12T10:35:35.199Z,15.60
2019-05-12T10:38:06.280Z,16.70
2019-05-12T10:40:33.837Z,17.10
2019-05-12T10:43:04.434Z,17.80
2019-05-12T10:45:34.033Z,18.30
2019-05-12T10:48:03.605Z,18.40
2019-05-12T10:50:34.099Z,19.80
2019-05-12T10:53:04.572Z,20.20
2019-05-12T10:55:33.920Z,21.80
2019-05-12T10:58:06.648Z,21.90
2019-05-12T11:00:33.867Z,22.30
2019-05-12T11:03:10.230Z,21.60
2019-05-12T11:05:34.208Z,22.00
2019-05-12T11:08:08.587Z,23.00
2019-05-12T11:10:33.220Z,22.90
2019-05-12T11:13:05.896Z,22.50
2019-05-12T11:15:33.947Z,22.50
2019-05-12T11:18:03.826Z,21.40
2019-05-12T11:20:34.308Z,21.30
2019-05-12T11:23:03.683Z,21.90
2019-05-12T11:25:34.031Z,22.40
2019-05-12T11:28:03.615Z,21.00
2019-05-12T11:30:34.628Z,20.00
2019-05-12T11:33:04.323Z,19.90
2019-05-12T11:35:33.437Z,20.80
2019-05-12T11:38:04.140Z,21.70
2019-05-12T11:40:34.360Z,20.70
2019-05-12T11:43:04.111Z,20.80
2019-05-12T11:45:33.560Z,20.00
2019-05-12T11:48:07.995Z,19.90
2019-05-12T11:50:32.496Z,21.20
2019-05-12T11:53:01.148Z,20.20
2019-05-12T11:55:31.809Z,19.80
2019-05-12T11:58:09.117Z,19.40
2019-05-12T12:00:33.639Z,19.90
2019-05-12T12:03:05.153Z,22.00
2019-05-12T12:05:34.109Z,22.80
2019-05-12T12:08:04.046Z,23.30
2019-05-12T12:10:37.466Z,22.20
2019-05-12T12:13:03.700Z,22.10
2019-05-12T12:15:34.428Z,21.60
2019-05-12T12:18:12.422Z,20.40
2019-05-12T12:20:33.950Z,20.10
2019-05-12T12:23:06.427Z,20.80
2019-05-12T12:25:34.228Z,21.60
2019-05-12T12:28:04.352Z,21.30
2019-05-12T12:30:33.967Z,22.80
2019-05-12T12:33:03.980Z,23.00
2019-05-12T12:35:34.524Z,24.50
2019-05-12T12:38:03.852Z,25.20
2019-05-12T12:40:32.474Z,24.20
2019-05-12T12:43:03.473Z,23.40
2019-05-12T12:45:40.042Z,22.70
2019-05-12T12:48:06.208Z,22.50
2019-05-12T12:50:34.848Z,23.70
2019-05-12T12:53:03.500Z,23.60
2019-05-12T12:55:32.011Z,21.80
2019-05-12T12:58:00.664Z,21.70
2019-05-12T13:00:32.729Z,23.30
2019-05-12T13:02:59.197Z,23.60
2019-05-12T13:05:28.230Z,24.20
2019-05-12T13:07:56.716Z,25.50
2019-05-12T13:10:25.140Z,24.70
2019-05-12T13:12:56.622Z,22.90
2019-05-12T13:15:23.757Z,21.60
2019-05-12T13:17:52.464Z,21.90
2019-05-12T13:20:20.999Z,22.90
2019-05-12T13:22:49.399Z,24.50
2019-05-12T13:25:18.075Z,26.20
2019-05-12T13:27:46.779Z,27.20
2019-05-12T13:30:20.124Z,27.00
2019-05-12T13:32:46.313Z,26.30
2019-05-12T13:35:18.525Z,25.30
2019-05-12T13:37:45.152Z,23.80
2019-05-12T13:40:13.943Z,24.20
2019-05-12T13:42:43.745Z,24.90
2019-05-12T13:45:15.998Z,25.40
2019-05-12T13:47:43.942Z,25.60
2019-05-12T13:50:21.263Z,25.60
2019-05-12T13:52:42.832Z,27.00
2019-05-12T13:55:13.236Z,26.30
2019-05-12T13:57:46.637Z,25.50
2019-05-12T14:00:14.065Z,23.80
2019-05-12T14:02:44.147Z,23.30
2019-05-12T14:05:15.216Z,23.80
2019-05-12T14:07:43.819Z,25.70
2019-05-12T14:10:14.069Z,27.60
2019-05-12T14:12:44.020Z,28.80
2019-05-12T14:15:14.375Z,29.30
2019-05-12T14:17:43.540Z,28.40
2019-05-12T14:20:15.946Z,26.20
2019-05-12T14:22:44.794Z,24.40
2019-05-12T14:25:15.146Z,24.60
2019-05-12T14:27:44.337Z,24.80
2019-05-12T14:30:14.501Z,26.70
2019-05-12T14:32:43.943Z,27.30
2019-05-12T14:35:13.100Z,27.20
2019-05-12T14:37:45.972Z,27.90
2019-05-12T14:40:13.400Z,28.60
2019-05-12T14:42:44.017Z,28.80
2019-05-12T14:45:13.741Z,28.20
2019-05-12T14:47:43.675Z,28.00
2019-05-12T14:50:14.131Z,28.20
2019-05-12T14:52:43.917Z,28.10
2019-05-12T14:55:13.941Z,26.80
2019-05-12T14:57:42.459Z,28.20
2019-05-12T15:00:17.502Z,26.80
2019-05-12T15:02:43.795Z,26.30
2019-05-12T15:05:14.113Z,26.80
2019-05-12T15:07:51.011Z,27.10
2019-05-12T15:10:14.521Z,27.20
2019-05-12T15:12:44.099Z,26.80
2019-05-12T15:15:18.402Z,28.60
2019-05-12T15:17:44.450Z,28.80
2019-05-12T15:20:14.036Z,29.00
2019-05-12T15:22:51.388Z,27.40
2019-05-12T15:25:14.608Z,26.70
2019-05-12T15:27:46.102Z,26.10
2019-05-12T15:30:22.799Z,25.30
2019-05-12T15:32:44.307Z,24.60
2019-05-12T15:35:13.818Z,23.80
2019-05-12T15:37:43.572Z,24.90
2019-05-12T15:40:14.480Z,25.60
2019-05-12T15:42:45.302Z,25.70
2019-05-12T15:45:16.522Z,24.70
2019-05-12T15:47:44.712Z,25.00
2019-05-12T15:50:14.618Z,23.70
2019-05-12T15:52:45.569Z,23.60
2019-05-12T15:55:15.985Z,22.90
2019-05-12T15:57:44.213Z,22.80
2019-05-12T16:00:13.862Z,22.20
2019-05-12T16:02:44.255Z,22.30
2019-05-12T16:05:14.544Z,24.20
2019-05-12T16:07:44.157Z,25.20
2019-05-12T16:10:14.666Z,25.30
2019-05-12T16:12:43.724Z,24.90
2019-05-12T16:15:17.063Z,24.70
2019-05-12T16:17:43.981Z,25.10
2019-05-12T16:20:14.314Z,24.50
2019-05-12T16:22:45.239Z,23.80
2019-05-12T16:25:15.178Z,23.90
2019-05-12T16:27:44.808Z,25.20
2019-05-12T16:30:14.696Z,26.30
2019-05-12T16:32:47.502Z,25.10
2019-05-12T16:35:14.529Z,25.50
2019-05-12T16:37:44.183Z,24.70
2019-05-12T16:40:13.869Z,24.90
2019-05-12T16:42:48.369Z,24.70
2019-05-12T16:45:14.348Z,23.80
2019-05-12T16:47:44.908Z,22.80
2019-05-12T16:50:16.897Z,22.70
2019-05-12T16:52:45.396Z,21.90
2019-05-12T16:55:14.448Z,21.60
2019-05-12T16:57:51.212Z,21.00
2019-05-12T17:00:14.250Z,20.20
2019-05-12T17:02:52.160Z,20.20
2019-05-12T17:05:19.739Z,20.40
2019-05-12T17:07:44.317Z,21.10
2019-05-12T17:10:16.431Z,21.60
2019-05-12T17:12:43.815Z,21.70
2019-05-12T17:15:15.095Z,22.00
2019-05-12T17:17:44.774Z,21.50
2019-05-12T17:20:13.947Z,21.80
2019-05-12T17:22:45.406Z,20.70
2019-05-12T17:25:15.470Z,19.40
2019-05-12T17:27:44.942Z,18.00
2019-05-12T17:30:14.134Z,17.40
2019-05-12T17:32:57.020Z,17.00
2019-05-12T17:35:14.654Z,16.40
2019-05-12T17:37:43.416Z,15.90
2019-05-12T17:40:15.521Z,15.50
2019-05-12T17:42:44.164Z,15.20
2019-05-12T17:45:17.976Z,14.80
2019-05-12T17:47:44.484Z,14.60
2019-05-12T17:50:14.078Z,14.40
2019-05-12T17:52:45.081Z,14.30
2019-05-12T17:55:14.622Z,14.30
2019-05-12T17:57:44.106Z,14.10
2019-05-12T18:00:14.685Z,13.90
2019-05-12T18:02:44.003Z,13.90
2019-05-12T18:05:15.503Z,13.80
2019-05-12T18:07:44.759Z,13.70
2019-05-12T18:10:13.730Z,13.70
2019-05-12T18:12:45.313Z,13.50
2019-05-12T18:15:15.170Z,13.40
2019-05-12T18:17:49.435Z,13.30
2019-05-12T18:20:14.805Z,13.20
2019-05-12T18:22:45.016Z,13.10
2019-05-12T18:25:14.835Z,12.90
2019-05-12T18:27:50.206Z,12.80
2019-05-12T18:30:18.600Z,12.80
2019-05-12T18:32:45.077Z,12.70
2019-05-12T18:35:13.984Z,12.60
2019-05-12T18:37:42.631Z,12.50
2019-05-12T18:40:14.435Z,12.30
2019-05-12T18:42:42.224Z,12.20
2019-05-12T18:45:12.522Z,12.10
2019-05-12T18:47:43.729Z,12.20
2019-05-12T18:50:13.788Z,12.00
2019-05-12T18:52:43.667Z,12.00
2019-05-12T18:55:12.656Z,12.00
2019-05-12T18:57:47.929Z,11.80
2019-05-12T19:00:18.259Z,11.60
2019-05-12T19:02:47.080Z,11.60
2019-05-12T19:05:21.746Z,11.60
2019-05-12T19:07:45.708Z,11.50
2019-05-12T19:10:14.333Z,11.30
2019-05-12T19:12:43.977Z,11.30
2019-05-12T19:15:19.470Z,11.20
2019-05-12T19:17:43.619Z,11.10
2019-05-12T19:20:13.783Z,11.00
2019-05-12T19:22:48.299Z,11.00
2019-05-12T19:25:14.840Z,10.90
2019-05-12T19:27:45.715Z,10.90
2019-05-12T19:30:13.922Z,10.80
2019-05-12T19:32:44.956Z,10.80
2019-05-12T19:35:15.906Z,10.70
2019-05-12T19:37:45.392Z,10.70
2019-05-12T19:40:17.463Z,10.60
2019-05-12T19:42:44.973Z,10.60
2019-05-12T19:45:19.502Z,10.50
2019-05-12T19:47:44.439Z,10.50
2019-05-12T19:50:18.141Z,10.40
2019-05-12T19:52:43.447Z,10.40
2019-05-12T19:55:13.912Z,10.40
2019-05-12T19:57:44.207Z,10.30
2019-05-12T20:00:13.858Z,10.20
2019-05-12T20:02:42.680Z,10.20
2019-05-12T20:05:15.055Z,10.30
2019-05-12T20:10:12.890Z,10.00
2019-05-12T20:12:40.123Z,10.10
2019-05-12T20:15:09.596Z,10.10
2019-05-12T20:17:38.488Z,10.10
2019-05-12T20:20:07.866Z,10.00
2019-05-12T20:22:36.289Z,10.00
2019-05-12T20:25:06.133Z,10.00
2019-05-12T20:27:34.752Z,9.90
2019-05-12T20:30:15.674Z,9.90
2019-05-12T20:32:35.913Z,9.90
2019-05-12T20:35:05.472Z,9.90
2019-05-12T20:37:33.877Z,9.80
2019-05-12T20:40:05.148Z,9.80
2019-05-12T20:42:42.039Z,9.80
2019-05-12T20:45:06.011Z,9.70
2019-05-12T20:47:38.980Z,9.70
2019-05-12T20:50:06.367Z,9.60
2019-05-12T20:52:39.287Z,9.50
2019-05-12T20:55:05.321Z,9.60
2019-05-12T20:57:34.623Z,9.50
2019-05-12T21:00:08.262Z,9.40
2019-05-12T21:02:34.968Z,9.40
2019-05-12T21:05:14.786Z,9.30
2019-05-12T21:07:37.738Z,9.40
2019-05-12T21:10:07.296Z,9.30
2019-05-12T21:12:40.224Z,9.30
2019-05-12T21:15:16.277Z,9.30
2019-05-12T21:17:43.052Z,9.20
2019-05-12T21:20:11.593Z,9.20
2019-05-12T21:22:38.926Z,9.20
2019-05-12T21:25:10.770Z,9.20
2019-05-12T21:27:38.257Z,9.20
2019-05-12T21:30:11.797Z,9.20
2019-05-12T21:32:37.614Z,9.20
2019-05-12T21:35:18.360Z,9.10
2019-05-12T21:37:45.133Z,9.10
2019-05-12T21:40:09.781Z,9.00
2019-05-12T21:42:38.430Z,9.00
2019-05-12T21:45:07.027Z,9.00
2019-05-12T21:47:42.648Z,8.90
2019-05-12T21:50:06.753Z,9.00
2019-05-12T21:52:39.256Z,8.90
2019-05-12T21:55:12.916Z,8.60
2019-05-12T21:57:37.217Z,8.80
2019-05-12T22:00:10.788Z,8.70
2019-05-12T22:02:40.104Z,8.70
2019-05-12T22:05:14.039Z,8.70
2019-05-12T22:07:39.949Z,8.70
2019-05-12T22:10:08.844Z,8.60
2019-05-12T22:12:37.497Z,8.60
2019-05-12T22:15:11.391Z,8.70
2019-05-12T22:17:55.369Z,8.60
2019-05-12T22:20:24.020Z,8.60
2019-05-12T22:22:52.432Z,8.70
2019-05-12T22:25:20.843Z,8.60
2019-05-12T22:27:49.718Z,8.70
2019-05-12T22:30:18.440Z,8.70
2019-05-12T22:32:46.836Z,8.70
2019-05-12T22:35:21.959Z,8.70
2019-05-12T22:37:45.475Z,8.70
2019-05-12T22:40:17.866Z,8.70
2019-05-12T22:42:44.568Z,8.60
2019-05-12T22:45:15.337Z,8.60
2019-05-12T22:47:44.056Z,8.70
2019-05-12T22:50:13.662Z,8.60
2019-05-12T22:52:47.263Z,8.50
2019-05-12T22:55:14.023Z,8.50
2019-05-12T22:57:43.483Z,8.50
2019-05-12T23:00:13.474Z,8.50
2019-05-12T23:02:44.661Z,8.40
2019-05-12T23:05:18.997Z,8.40
2019-05-12T23:07:44.003Z,8.40
2019-05-12T23:10:14.212Z,8.30
2019-05-12T23:12:44.683Z,8.30
2019-05-12T23:15:13.723Z,8.30
2019-05-12T23:17:45.152Z,8.20
2019-05-12T23:20:13.706Z,8.20
2019-05-12T23:22:43.773Z,8.30
2019-05-12T23:25:20.012Z,8.20
2019-05-12T23:27:44.236Z,8.20
2019-05-12T23:30:15.754Z,8.20
2019-05-12T23:32:51.337Z,8.20
2019-05-12T23:35:14.535Z,8.10
2019-05-12T23:37:44.183Z,8.00
2019-05-12T23:40:16.643Z,8.00
2019-05-12T23:42:44.587Z,7.90
2019-05-12T23:45:13.937Z,7.90
2019-05-12T23:47:43.977Z,7.80
2019-05-12T23:50:14.192Z,7.80
2019-05-12T23:52:44.036Z,7.80
2019-05-12T23:55:13.856Z,7.80
2019-05-12T23:57:44.498Z,7.80
